Terminal Aerodrome Forecast
Issued by NWS Jackson, MS

Home | Current Version | Previous Version | Text Only | Print | Product List | Glossary On
Versions: 1 2 3 4 5 6 7 8 9 10 11 12 13 14 15 16 17 18 19 20 21 22 23
109
FTUS44 KJAN 211121
TAFMEI
TAF
KMEI 211121Z 2112/2212 17010KT P6SM SCT010 BKN025
     FM211600 17012KT P6SM BKN025
     FM212200 17014KT P6SM VCSH SCT025 BKN040
     FM220100 17005KT P6SM BKN030
     FM220700 19008KT 4SM BR OVC015=

USA.gov is the U.S. government's official web portal to all federal, state and local government web resources and services.